Terminal Aerodrome Forecast
Issued by NWS Bismarck, ND

Home | Current Version | Previous Version | Text Only | Print | Product List | Glossary Off
Versions: 1 2 3 4 5 6 7 8 9 10 11 12 13 14 15 16 17 18 19 20 21 22 23

000
FTUS43 KBIS 111124
TAFISN
TAF
KISN 111124Z 1112/1212 07005KT 1 1/2SM -SN BR OVC004
     FM111800 06006KT 3SM -SN BR OVC008
     FM112300 36008KT P6SM -SN OVC008
     FM120100 01006KT P6SM OVC015
     FM120300 01006KT P6SM OVC025
     FM120900 01008KT P6SM OVC035=

USA.gov is the U.S. government's official web portal to all federal, state and local government web resources and services.